sensor_id;sensor_type;location;lat;lon;timestamp;P1;durP1;ratioP1;P2;durP2;ratioP2
35606;SDS011;21729;58.392;15.656;2022-07-23T00:00:12;6.60;;;3.95;;
35606;SDS011;21729;58.392;15.656;2022-07-23T00:02:41;7.22;;;4.07;;
35606;SDS011;21729;58.392;15.656;2022-07-23T00:05:08;8.23;;;4.57;;
35606;SDS011;21729;58.392;15.656;2022-07-23T00:07:36;6.80;;;4.30;;
35606;SDS011;21729;58.392;15.656;2022-07-23T00:10:03;7.47;;;4.50;;
35606;SDS011;21729;58.392;15.656;2022-07-23T00:12:31;8.13;;;4.43;;
35606;SDS011;21729;58.392;15.656;2022-07-23T00:14:58;6.93;;;4.18;;
35606;SDS011;21729;58.392;15.656;2022-07-23T00:17:25;7.00;;;4.35;;
35606;SDS011;21729;58.392;15.656;2022-07-23T00:19:54;8.32;;;4.30;;
35606;SDS011;21729;58.392;15.656;2022-07-23T00:22:21;6.97;;;4.53;;
35606;SDS011;21729;58.392;15.656;2022-07-23T00:24:48;7.50;;;4.35;;
35606;SDS011;21729;58.392;15.656;2022-07-23T00:27:15;8.23;;;4.53;;
35606;SDS011;21729;58.392;15.656;2022-07-23T00:29:42;7.03;;;4.20;;
35606;SDS011;21729;58.392;15.656;2022-07-23T00:32:09;9.03;;;4.70;;
35606;SDS011;21729;58.392;15.656;2022-07-23T00:34:36;8.65;;;4.30;;
35606;SDS011;21729;58.392;15.656;2022-07-23T00:37:05;7.00;;;4.05;;
35606;SDS011;21729;58.392;15.656;2022-07-23T00:39:32;6.97;;;4.05;;
35606;SDS011;21729;58.392;15.656;2022-07-23T00:41:59;8.53;;;3.50;;
35606;SDS011;21729;58.392;15.656;2022-07-23T00:44:26;8.27;;;3.90;;
35606;SDS011;21729;58.392;15.656;2022-07-23T00:46:54;6.65;;;3.50;;
35606;SDS011;21729;58.392;15.656;2022-07-23T00:49:23;8.10;;;3.70;;
35606;SDS011;21729;58.392;15.656;2022-07-23T00:51:52;6.05;;;3.65;;
35606;SDS011;21729;58.392;15.656;2022-07-23T00:54:21;8.85;;;4.00;;
35606;SDS011;21729;58.392;15.656;2022-07-23T00:56:49;7.70;;;3.45;;
35606;SDS011;21729;58.392;15.656;2022-07-23T00:59:16;6.97;;;3.50;;
35606;SDS011;21729;58.392;15.656;2022-07-23T01:01:43;8.25;;;3.75;;
35606;SDS011;21729;58.392;15.656;2022-07-23T01:04:12;6.70;;;3.60;;
35606;SDS011;21729;58.392;15.656;2022-07-23T01:06:40;8.00;;;3.80;;
35606;SDS011;21729;58.392;15.656;2022-07-23T01:09:09;9.45;;;3.88;;
35606;SDS011;21729;58.392;15.656;2022-07-23T01:11:37;7.13;;;3.72;;
35606;SDS011;21729;58.392;15.656;2022-07-23T01:14:07;6.95;;;3.70;;
35606;SDS011;21729;58.392;15.656;2022-07-23T01:16:35;7.45;;;3.85;;
35606;SDS011;21729;58.392;15.656;2022-07-23T01:19:02;8.45;;;3.30;;
35606;SDS011;21729;58.392;15.656;2022-07-23T01:21:32;8.93;;;3.78;;
35606;SDS011;21729;58.392;15.656;2022-07-23T01:24:03;8.10;;;3.40;;
35606;SDS011;21729;58.392;15.656;2022-07-23T01:26:31;9.38;;;3.78;;
35606;SDS011;21729;58.392;15.656;2022-07-23T01:28:58;9.23;;;3.55;;
35606;SDS011;21729;58.392;15.656;2022-07-23T01:31:25;6.22;;;3.60;;
35606;SDS011;21729;58.392;15.656;2022-07-23T01:33:53;5.80;;;3.40;;
35606;SDS011;21729;58.392;15.656;2022-07-23T01:36:20;7.50;;;3.50;;
35606;SDS011;21729;58.392;15.656;2022-07-23T01:38:47;7.93;;;3.67;;
35606;SDS011;21729;58.392;15.656;2022-07-23T01:41:16;8.38;;;3.65;;
35606;SDS011;21729;58.392;15.656;2022-07-23T01:43:43;6.97;;;3.78;;
35606;SDS011;21729;58.392;15.656;2022-07-23T01:46:10;8.68;;;3.80;;
35606;SDS011;21729;58.392;15.656;2022-07-23T01:48:38;3.15;;;2.40;;
35606;SDS011;21729;58.392;15.656;2022-07-23T01:51:05;2.50;;;1.73;;
35606;SDS011;21729;58.392;15.656;2022-07-23T01:53:32;2.63;;;1.90;;
35606;SDS011;21729;58.392;15.656;2022-07-23T01:56:00;2.13;;;1.80;;
35606;SDS011;21729;58.392;15.656;2022-07-23T01:58:29;2.90;;;1.95;;
35606;SDS011;21729;58.392;15.656;2022-07-23T02:00:56;2.03;;;1.90;;
35606;SDS011;21729;58.392;15.656;2022-07-23T02:03:24;2.00;;;1.80;;
35606;SDS011;21729;58.392;15.656;2022-07-23T02:05:51;1.98;;;1.80;;
35606;SDS011;21729;58.392;15.656;2022-07-23T02:08:19;2.45;;;2.25;;
35606;SDS011;21729;58.392;15.656;2022-07-23T02:10:46;3.20;;;2.50;;
35606;SDS011;21729;58.392;15.656;2022-07-23T02:13:13;3.13;;;2.50;;
35606;SDS011;21729;58.392;15.656;2022-07-23T02:15:42;2.75;;;2.50;;
35606;SDS011;21729;58.392;15.656;2022-07-23T02:18:09;3.67;;;2.33;;
35606;SDS011;21729;58.392;15.656;2022-07-23T02:20:36;2.50;;;2.00;;
35606;SDS011;21729;58.392;15.656;2022-07-23T02:23:04;3.40;;;2.10;;
35606;SDS011;21729;58.392;15.656;2022-07-23T02:25:33;2.70;;;2.10;;
35606;SDS011;21729;58.392;15.656;2022-07-23T02:28:00;2.97;;;2.15;;
35606;SDS011;21729;58.392;15.656;2022-07-23T02:30:28;2.28;;;2.08;;
35606;SDS011;21729;58.392;15.656;2022-07-23T02:32:56;2.60;;;2.20;;
35606;SDS011;21729;58.392;15.656;2022-07-23T02:35:23;2.72;;;2.40;;
35606;SDS011;21729;58.392;15.656;2022-07-23T02:37:50;2.10;;;1.90;;
35606;SDS011;21729;58.392;15.656;2022-07-23T02:40:18;2.63;;;2.22;;
35606;SDS011;21729;58.392;15.656;2022-07-23T02:42:45;2.83;;;2.28;;
35606;SDS011;21729;58.392;15.656;2022-07-23T02:45:12;2.80;;;2.40;;
35606;SDS011;21729;58.392;15.656;2022-07-23T02:47:39;3.78;;;2.55;;
35606;SDS011;21729;58.392;15.656;2022-07-23T02:50:08;2.92;;;2.33;;
35606;SDS011;21729;58.392;15.656;2022-07-23T02:52:37;3.60;;;2.30;;
35606;SDS011;21729;58.392;15.656;2022-07-23T02:55:05;2.88;;;2.25;;
35606;SDS011;21729;58.392;15.656;2022-07-23T02:57:32;2.53;;;2.00;;
35606;SDS011;21729;58.392;15.656;2022-07-23T02:59:59;3.58;;;2.50;;
35606;SDS011;21729;58.392;15.656;2022-07-23T03:02:26;4.32;;;2.38;;
35606;SDS011;21729;58.392;15.656;2022-07-23T03:04:53;3.55;;;2.30;;
35606;SDS011;21729;58.392;15.656;2022-07-23T03:07:22;2.60;;;2.40;;
35606;SDS011;21729;58.392;15.656;2022-07-23T03:09:49;2.75;;;2.22;;
35606;SDS011;21729;58.392;15.656;2022-07-23T03:12:16;2.72;;;2.13;;
35606;SDS011;21729;58.392;15.656;2022-07-23T03:14:43;3.00;;;2.20;;
35606;SDS011;21729;58.392;15.656;2022-07-23T03:17:10;2.77;;;2.30;;
35606;SDS011;21729;58.392;15.656;2022-07-23T03:19:37;3.80;;;2.20;;
35606;SDS011;21729;58.392;15.656;2022-07-23T03:22:04;2.65;;;2.25;;
35606;SDS011;21729;58.392;15.656;2022-07-23T03:24:33;2.92;;;2.38;;
35606;SDS011;21729;58.392;15.656;2022-07-23T03:27:17;3.20;;;2.40;;
35606;SDS011;21729;58.392;15.656;2022-07-23T03:29:44;2.63;;;2.42;;
35606;SDS011;21729;58.392;15.656;2022-07-23T03:32:11;3.13;;;2.77;;
35606;SDS011;21729;58.392;15.656;2022-07-23T03:34:38;2.60;;;2.10;;
35606;SDS011;21729;58.392;15.656;2022-07-23T03:37:06;3.20;;;2.00;;
35606;SDS011;21729;58.392;15.656;2022-07-23T03:39:34;3.05;;;1.90;;
35606;SDS011;21729;58.392;15.656;2022-07-23T03:42:01;2.90;;;2.00;;
35606;SDS011;21729;58.392;15.656;2022-07-23T03:44:28;2.45;;;1.95;;
35606;SDS011;21729;58.392;15.656;2022-07-23T03:46:56;2.75;;;2.10;;
35606;SDS011;21729;58.392;15.656;2022-07-23T03:49:23;2.33;;;2.13;;
35606;SDS011;21729;58.392;15.656;2022-07-23T03:51:50;1.97;;;1.87;;
35606;SDS011;21729;58.392;15.656;2022-07-23T03:54:17;2.77;;;2.20;;
35606;SDS011;21729;58.392;15.656;2022-07-23T03:56:46;2.50;;;2.30;;
35606;SDS011;21729;58.392;15.656;2022-07-23T03:59:13;2.42;;;2.20;;
35606;SDS011;21729;58.392;15.656;2022-07-23T04:01:40;2.50;;;2.30;;
35606;SDS011;21729;58.392;15.656;2022-07-23T04:04:07;2.50;;;2.20;;
35606;SDS011;21729;58.392;15.656;2022-07-23T04:06:34;2.20;;;2.00;;
35606;SDS011;21729;58.392;15.656;2022-07-23T04:09:02;2.15;;;1.98;;
35606;SDS011;21729;58.392;15.656;2022-07-23T04:11:29;2.20;;;2.00;;
35606;SDS011;21729;58.392;15.656;2022-07-23T04:13:58;2.00;;;1.90;;
35606;SDS011;21729;58.392;15.656;2022-07-23T04:16:25;2.05;;;1.85;;
35606;SDS011;21729;58.392;15.656;2022-07-23T04:18:53;1.90;;;1.80;;
35606;SDS011;21729;58.392;15.656;2022-07-23T04:21:20;1.83;;;1.73;;
35606;SDS011;21729;58.392;15.656;2022-07-23T04:23:47;1.88;;;1.52;;
35606;SDS011;21729;58.392;15.656;2022-07-23T04:26:14;1.40;;;1.30;;
35606;SDS011;21729;58.392;15.656;2022-07-23T04:28:41;1.75;;;1.60;;
35606;SDS011;21729;58.392;15.656;2022-07-23T04:31:10;1.88;;;1.60;;
35606;SDS011;21729;58.392;15.656;2022-07-23T04:33:37;1.45;;;1.30;;
35606;SDS011;21729;58.392;15.656;2022-07-23T04:36:04;2.65;;;1.52;;
35606;SDS011;21729;58.392;15.656;2022-07-23T04:38:32;2.00;;;1.58;;
35606;SDS011;21729;58.392;15.656;2022-07-23T04:40:59;1.80;;;1.48;;
35606;SDS011;21729;58.392;15.656;2022-07-23T04:43:26;2.35;;;1.60;;
35606;SDS011;21729;58.392;15.656;2022-07-23T04:45:53;1.92;;;1.60;;
35606;SDS011;21729;58.392;15.656;2022-07-23T04:48:22;2.42;;;1.83;;
35606;SDS011;21729;58.392;15.656;2022-07-23T04:50:49;1.75;;;1.50;;
35606;SDS011;21729;58.392;15.656;2022-07-23T04:53:16;1.70;;;1.50;;
35606;SDS011;21729;58.392;15.656;2022-07-23T04:55:45;2.25;;;1.50;;
35606;SDS011;21729;58.392;15.656;2022-07-23T04:58:12;1.67;;;1.35;;
35606;SDS011;21729;58.392;15.656;2022-07-23T05:00:39;1.70;;;1.23;;
35606;SDS011;21729;58.392;15.656;2022-07-23T05:03:06;1.10;;;1.10;;
35606;SDS011;21729;58.392;15.656;2022-07-23T05:05:34;2.08;;;1.30;;
35606;SDS011;21729;58.392;15.656;2022-07-23T05:08:02;1.20;;;1.10;;
35606;SDS011;21729;58.392;15.656;2022-07-23T05:10:29;1.02;;;1.00;;
35606;SDS011;21729;58.392;15.656;2022-07-23T05:12:56;1.15;;;1.10;;
35606;SDS011;21729;58.392;15.656;2022-07-23T05:15:24;1.70;;;1.30;;
35606;SDS011;21729;58.392;15.656;2022-07-23T05:17:51;1.00;;;1.00;;
35606;SDS011;21729;58.392;15.656;2022-07-23T05:20:18;1.67;;;1.30;;
35606;SDS011;21729;58.392;15.656;2022-07-23T05:22:46;1.30;;;1.20;;
35606;SDS011;21729;58.392;15.656;2022-07-23T05:25:14;1.13;;;1.10;;
35606;SDS011;21729;58.392;15.656;2022-07-23T05:27:41;1.67;;;1.30;;
35606;SDS011;21729;58.392;15.656;2022-07-23T05:30:08;1.48;;;1.38;;
35606;SDS011;21729;58.392;15.656;2022-07-23T05:32:36;1.50;;;1.40;;
35606;SDS011;21729;58.392;15.656;2022-07-23T05:35:03;2.10;;;1.50;;
35606;SDS011;21729;58.392;15.656;2022-07-23T05:37:31;1.60;;;1.50;;
35606;SDS011;21729;58.392;15.656;2022-07-23T05:40:01;1.60;;;1.50;;
35606;SDS011;21729;58.392;15.656;2022-07-23T05:42:31;1.30;;;1.20;;
35606;SDS011;21729;58.392;15.656;2022-07-23T05:44:58;1.50;;;1.40;;
35606;SDS011;21729;58.392;15.656;2022-07-23T05:47:25;1.50;;;1.40;;
35606;SDS011;21729;58.392;15.656;2022-07-23T05:49:52;1.42;;;1.33;;
35606;SDS011;21729;58.392;15.656;2022-07-23T05:52:19;1.35;;;1.25;;
35606;SDS011;21729;58.392;15.656;2022-07-23T05:54:46;1.55;;;1.45;;
35606;SDS011;21729;58.392;15.656;2022-07-23T05:57:15;1.50;;;1.40;;
35606;SDS011;21729;58.392;15.656;2022-07-23T05:59:42;1.85;;;1.40;;
35606;SDS011;21729;58.392;15.656;2022-07-23T06:02:09;1.58;;;1.48;;
35606;SDS011;21729;58.392;15.656;2022-07-23T06:04:36;1.50;;;1.30;;
35606;SDS011;21729;58.392;15.656;2022-07-23T06:07:03;1.50;;;1.40;;
35606;SDS011;21729;58.392;15.656;2022-07-23T06:09:30;1.65;;;1.40;;
35606;SDS011;21729;58.392;15.656;2022-07-23T06:11:57;1.48;;;1.38;;
35606;SDS011;21729;58.392;15.656;2022-07-23T06:14:26;1.23;;;1.20;;
35606;SDS011;21729;58.392;15.656;2022-07-23T06:16:53;1.27;;;1.17;;
35606;SDS011;21729;58.392;15.656;2022-07-23T06:19:20;1.40;;;1.30;;
35606;SDS011;21729;58.392;15.656;2022-07-23T06:21:47;1.30;;;1.20;;
35606;SDS011;21729;58.392;15.656;2022-07-23T06:24:14;1.77;;;1.20;;
35606;SDS011;21729;58.392;15.656;2022-07-23T06:26:41;1.00;;;1.00;;
35606;SDS011;21729;58.392;15.656;2022-07-23T06:29:08;1.27;;;1.20;;
35606;SDS011;21729;58.392;15.656;2022-07-23T06:31:37;1.40;;;1.30;;
35606;SDS011;21729;58.392;15.656;2022-07-23T06:34:04;1.17;;;1.17;;
35606;SDS011;21729;58.392;15.656;2022-07-23T06:36:31;1.10;;;1.10;;
35606;SDS011;21729;58.392;15.656;2022-07-23T06:38:58;0.93;;;0.93;;
35606;SDS011;21729;58.392;15.656;2022-07-23T06:41:25;1.20;;;1.00;;
35606;SDS011;21729;58.392;15.656;2022-07-23T06:43:52;2.08;;;1.08;;
35606;SDS011;21729;58.392;15.656;2022-07-23T06:46:19;1.40;;;1.30;;
35606;SDS011;21729;58.392;15.656;2022-07-23T06:48:48;1.23;;;1.05;;
35606;SDS011;21729;58.392;15.656;2022-07-23T06:51:15;1.10;;;1.10;;
35606;SDS011;21729;58.392;15.656;2022-07-23T06:53:42;1.65;;;1.23;;
35606;SDS011;21729;58.392;15.656;2022-07-23T06:56:09;1.15;;;1.15;;
35606;SDS011;21729;58.392;15.656;2022-07-23T06:58:36;2.03;;;1.27;;
35606;SDS011;21729;58.392;15.656;2022-07-23T07:01:03;1.42;;;1.33;;
35606;SDS011;21729;58.392;15.656;2022-07-23T07:03:30;1.10;;;1.00;;
35606;SDS011;21729;58.392;15.656;2022-07-23T07:05:59;1.40;;;1.10;;
35606;SDS011;21729;58.392;15.656;2022-07-23T07:08:27;0.90;;;0.90;;
35606;SDS011;21729;58.392;15.656;2022-07-23T07:10:54;1.10;;;0.95;;
35606;SDS011;21729;58.392;15.656;2022-07-23T07:13:21;0.98;;;0.98;;
35606;SDS011;21729;58.392;15.656;2022-07-23T07:15:48;1.08;;;1.08;;
35606;SDS011;21729;58.392;15.656;2022-07-23T07:18:16;1.30;;;1.05;;
35606;SDS011;21729;58.392;15.656;2022-07-23T07:20:43;0.90;;;0.90;;
35606;SDS011;21729;58.392;15.656;2022-07-23T07:23:11;0.98;;;0.98;;
35606;SDS011;21729;58.392;15.656;2022-07-23T07:25:39;0.93;;;0.90;;
35606;SDS011;21729;58.392;15.656;2022-07-23T07:28:06;1.35;;;1.08;;
35606;SDS011;21729;58.392;15.656;2022-07-23T07:30:34;1.08;;;1.08;;
35606;SDS011;21729;58.392;15.656;2022-07-23T07:33:01;1.17;;;1.10;;
35606;SDS011;21729;58.392;15.656;2022-07-23T07:35:28;1.23;;;1.13;;
35606;SDS011;21729;58.392;15.656;2022-07-23T07:37:56;1.20;;;1.10;;
35606;SDS011;21729;58.392;15.656;2022-07-23T07:40:24;1.40;;;1.30;;
35606;SDS011;21729;58.392;15.656;2022-07-23T07:42:52;1.40;;;1.30;;
35606;SDS011;21729;58.392;15.656;2022-07-23T07:45:22;1.27;;;1.17;;
35606;SDS011;21729;58.392;15.656;2022-07-23T07:47:49;1.08;;;1.08;;
35606;SDS011;21729;58.392;15.656;2022-07-23T07:50:17;0.98;;;0.90;;
35606;SDS011;21729;58.392;15.656;2022-07-23T07:52:44;0.93;;;0.93;;
35606;SDS011;21729;58.392;15.656;2022-07-23T07:55:11;0.90;;;0.90;;
35606;SDS011;21729;58.392;15.656;2022-07-23T07:57:40;0.90;;;0.90;;
35606;SDS011;21729;58.392;15.656;2022-07-23T08:00:08;1.40;;;1.00;;
35606;SDS011;21729;58.392;15.656;2022-07-23T08:02:39;1.40;;;1.17;;
35606;SDS011;21729;58.392;15.656;2022-07-23T08:05:10;1.15;;;1.05;;
35606;SDS011;21729;58.392;15.656;2022-07-23T08:07:38;1.10;;;1.00;;
35606;SDS011;21729;58.392;15.656;2022-07-23T08:10:05;1.27;;;1.10;;
35606;SDS011;21729;58.392;15.656;2022-07-23T08:12:39;1.20;;;1.10;;
35606;SDS011;21729;58.392;15.656;2022-07-23T08:15:08;1.05;;;1.05;;
35606;SDS011;21729;58.392;15.656;2022-07-23T08:17:35;1.00;;;1.00;;
35606;SDS011;21729;58.392;15.656;2022-07-23T08:20:03;1.30;;;1.20;;
35606;SDS011;21729;58.392;15.656;2022-07-23T08:22:47;1.00;;;1.00;;
35606;SDS011;21729;58.392;15.656;2022-07-23T08:25:15;1.25;;;1.15;;
35606;SDS011;21729;58.392;15.656;2022-07-23T08:27:47;1.33;;;1.23;;
35606;SDS011;21729;58.392;15.656;2022-07-23T08:30:15;1.45;;;1.30;;
35606;SDS011;21729;58.392;15.656;2022-07-23T08:32:49;1.55;;;1.30;;
35606;SDS011;21729;58.392;15.656;2022-07-23T08:35:20;1.38;;;1.27;;
35606;SDS011;21729;58.392;15.656;2022-07-23T08:37:49;1.08;;;1.08;;
35606;SDS011;21729;58.392;15.656;2022-07-23T08:40:16;1.40;;;1.30;;
35606;SDS011;21729;58.392;15.656;2022-07-23T08:42:44;1.40;;;1.30;;
35606;SDS011;21729;58.392;15.656;2022-07-23T08:45:16;1.20;;;1.20;;
35606;SDS011;21729;58.392;15.656;2022-07-23T08:47:46;1.40;;;1.30;;
35606;SDS011;21729;58.392;15.656;2022-07-23T08:50:18;1.55;;;1.45;;
35606;SDS011;21729;58.392;15.656;2022-07-23T08:52:45;1.20;;;1.20;;
35606;SDS011;21729;58.392;15.656;2022-07-23T08:55:13;1.50;;;1.40;;
35606;SDS011;21729;58.392;15.656;2022-07-23T08:57:42;1.48;;;1.38;;
35606;SDS011;21729;58.392;15.656;2022-07-23T09:00:11;1.52;;;1.42;;
35606;SDS011;21729;58.392;15.656;2022-07-23T09:02:39;1.58;;;1.40;;
35606;SDS011;21729;58.392;15.656;2022-07-23T09:05:08;1.20;;;1.10;;
35606;SDS011;21729;58.392;15.656;2022-07-23T09:07:37;0.95;;;0.93;;
35606;SDS011;21729;58.392;15.656;2022-07-23T09:10:06;1.10;;;1.10;;
35606;SDS011;21729;58.392;15.656;2022-07-23T09:12:34;1.30;;;1.20;;
35606;SDS011;21729;58.392;15.656;2022-07-23T09:15:11;1.05;;;1.05;;
35606;SDS011;21729;58.392;15.656;2022-07-23T09:17:39;1.15;;;1.08;;
35606;SDS011;21729;58.392;15.656;2022-07-23T09:20:08;1.10;;;1.10;;
35606;SDS011;21729;58.392;15.656;2022-07-23T09:22:37;1.17;;;1.05;;
35606;SDS011;21729;58.392;15.656;2022-07-23T09:25:08;1.00;;;1.00;;
35606;SDS011;21729;58.392;15.656;2022-07-23T09:27:47;1.00;;;0.90;;
35606;SDS011;21729;58.392;15.656;2022-07-23T09:30:19;1.17;;;1.17;;
35606;SDS011;21729;58.392;15.656;2022-07-23T09:35:45;1.00;;;1.00;;
35606;SDS011;21729;58.392;15.656;2022-07-23T09:38:14;1.00;;;1.00;;
35606;SDS011;21729;58.392;15.656;2022-07-23T09:40:42;1.17;;;1.15;;
35606;SDS011;21729;58.392;15.656;2022-07-23T09:43:10;0.95;;;0.95;;
35606;SDS011;21729;58.392;15.656;2022-07-23T09:45:39;1.30;;;1.20;;
35606;SDS011;21729;58.392;15.656;2022-07-23T09:48:09;1.05;;;1.00;;
35606;SDS011;21729;58.392;15.656;2022-07-23T09:50:37;1.00;;;1.00;;
35606;SDS011;21729;58.392;15.656;2022-07-23T09:53:05;1.35;;;1.25;;
35606;SDS011;21729;58.392;15.656;2022-07-23T09:55:33;1.20;;;1.13;;
35606;SDS011;21729;58.392;15.656;2022-07-23T09:58:02;1.07;;;0.97;;
35606;SDS011;21729;58.392;15.656;2022-07-23T10:00:29;1.00;;;1.00;;
35606;SDS011;21729;58.392;15.656;2022-07-23T10:02:59;0.97;;;0.97;;
35606;SDS011;21729;58.392;15.656;2022-07-23T10:05:27;0.88;;;0.88;;
35606;SDS011;21729;58.392;15.656;2022-07-23T10:07:56;1.83;;;1.00;;
35606;SDS011;21729;58.392;15.656;2022-07-23T10:10:26;0.80;;;0.80;;
35606;SDS011;21729;58.392;15.656;2022-07-23T10:12:54;1.02;;;1.02;;
35606;SDS011;21729;58.392;15.656;2022-07-23T10:15:40;1.50;;;1.00;;
35606;SDS011;21729;58.392;15.656;2022-07-23T10:18:10;1.10;;;1.10;;
35606;SDS011;21729;58.392;15.656;2022-07-23T10:20:38;1.10;;;1.10;;
35606;SDS011;21729;58.392;15.656;2022-07-23T10:23:08;1.30;;;1.20;;
35606;SDS011;21729;58.392;15.656;2022-07-23T10:25:41;1.40;;;1.30;;
35606;SDS011;21729;58.392;15.656;2022-07-23T10:28:22;1.30;;;1.30;;
35606;SDS011;21729;58.392;15.656;2022-07-23T10:31:00;1.45;;;1.38;;
35606;SDS011;21729;58.392;15.656;2022-07-23T10:33:38;1.50;;;1.40;;
35606;SDS011;21729;58.392;15.656;2022-07-23T10:36:16;1.30;;;1.30;;
35606;SDS011;21729;58.392;15.656;2022-07-23T10:38:48;1.50;;;1.40;;
35606;SDS011;21729;58.392;15.656;2022-07-23T10:41:30;1.42;;;1.40;;
35606;SDS011;21729;58.392;15.656;2022-07-23T10:44:07;1.73;;;1.63;;
35606;SDS011;21729;58.392;15.656;2022-07-23T10:46:36;1.48;;;1.35;;
35606;SDS011;21729;58.392;15.656;2022-07-23T10:49:26;1.42;;;1.30;;
35606;SDS011;21729;58.392;15.656;2022-07-23T10:54:44;1.25;;;1.25;;
35606;SDS011;21729;58.392;15.656;2022-07-23T10:57:12;1.17;;;1.17;;
35606;SDS011;21729;58.392;15.656;2022-07-23T11:02:45;1.30;;;1.20;;
35606;SDS011;21729;58.392;15.656;2022-07-23T11:05:15;1.40;;;1.30;;
35606;SDS011;21729;58.392;15.656;2022-07-23T11:10:53;1.35;;;1.25;;
35606;SDS011;21729;58.392;15.656;2022-07-23T11:16:24;1.40;;;1.30;;
35606;SDS011;21729;58.392;15.656;2022-07-23T11:18:55;1.40;;;1.30;;
35606;SDS011;21729;58.392;15.656;2022-07-23T11:21:49;1.55;;;1.48;;
35606;SDS011;21729;58.392;15.656;2022-07-23T11:24:21;1.60;;;1.50;;
35606;SDS011;21729;58.392;15.656;2022-07-23T11:26:50;1.15;;;1.15;;
35606;SDS011;21729;58.392;15.656;2022-07-23T11:32:17;0.80;;;0.80;;
35606;SDS011;21729;58.392;15.656;2022-07-23T11:34:55;0.95;;;0.93;;
35606;SDS011;21729;58.392;15.656;2022-07-23T11:37:28;1.00;;;1.00;;
35606;SDS011;21729;58.392;15.656;2022-07-23T11:40:01;1.10;;;1.00;;
35606;SDS011;21729;58.392;15.656;2022-07-23T11:42:32;1.75;;;0.77;;
35606;SDS011;21729;58.392;15.656;2022-07-23T11:44:59;1.00;;;0.90;;
35606;SDS011;21729;58.392;15.656;2022-07-23T11:47:26;0.85;;;0.82;;
35606;SDS011;21729;58.392;15.656;2022-07-23T11:49:54;1.30;;;1.07;;
35606;SDS011;21729;58.392;15.656;2022-07-23T11:52:23;1.08;;;1.00;;
35606;SDS011;21729;58.392;15.656;2022-07-23T11:54:53;1.10;;;1.00;;
35606;SDS011;21729;58.392;15.656;2022-07-23T11:57:24;1.10;;;1.10;;
35606;SDS011;21729;58.392;15.656;2022-07-23T11:59:52;1.30;;;1.20;;
35606;SDS011;21729;58.392;15.656;2022-07-23T12:02:21;1.38;;;1.20;;
35606;SDS011;21729;58.392;15.656;2022-07-23T12:04:50;1.10;;;1.10;;
35606;SDS011;21729;58.392;15.656;2022-07-23T12:07:28;1.33;;;1.27;;
35606;SDS011;21729;58.392;15.656;2022-07-23T12:10:03;1.70;;;1.13;;
35606;SDS011;21729;58.392;15.656;2022-07-23T12:12:35;1.33;;;1.23;;
35606;SDS011;21729;58.392;15.656;2022-07-23T12:15:05;1.20;;;1.20;;
35606;SDS011;21729;58.392;15.656;2022-07-23T12:17:33;1.30;;;1.20;;
35606;SDS011;21729;58.392;15.656;2022-07-23T12:20:03;1.25;;;1.15;;
35606;SDS011;21729;58.392;15.656;2022-07-23T12:22:35;1.17;;;1.10;;
35606;SDS011;21729;58.392;15.656;2022-07-23T12:25:09;1.20;;;1.20;;
35606;SDS011;21729;58.392;15.656;2022-07-23T12:27:38;1.33;;;1.23;;
35606;SDS011;21729;58.392;15.656;2022-07-23T12:30:15;1.90;;;1.40;;
35606;SDS011;21729;58.392;15.656;2022-07-23T12:32:47;1.42;;;1.33;;
35606;SDS011;21729;58.392;15.656;2022-07-23T12:35:16;1.75;;;1.48;;
35606;SDS011;21729;58.392;15.656;2022-07-23T12:37:44;1.67;;;1.57;;
35606;SDS011;21729;58.392;15.656;2022-07-23T12:40:23;1.63;;;1.40;;
35606;SDS011;21729;58.392;15.656;2022-07-23T12:42:53;1.60;;;1.50;;
35606;SDS011;21729;58.392;15.656;2022-07-23T12:45:21;1.60;;;1.50;;
35606;SDS011;21729;58.392;15.656;2022-07-23T12:48:02;1.70;;;1.60;;
35606;SDS011;21729;58.392;15.656;2022-07-23T12:50:36;1.50;;;1.40;;
35606;SDS011;21729;58.392;15.656;2022-07-23T12:53:05;1.50;;;1.40;;
35606;SDS011;21729;58.392;15.656;2022-07-23T12:55:36;1.58;;;1.48;;
35606;SDS011;21729;58.392;15.656;2022-07-23T12:58:05;1.50;;;1.40;;
35606;SDS011;21729;58.392;15.656;2022-07-23T13:00:48;1.50;;;1.40;;
35606;SDS011;21729;58.392;15.656;2022-07-23T13:03:26;1.40;;;1.30;;
35606;SDS011;21729;58.392;15.656;2022-07-23T13:05:55;1.58;;;1.30;;
35606;SDS011;21729;58.392;15.656;2022-07-23T13:08:23;1.40;;;1.30;;
35606;SDS011;21729;58.392;15.656;2022-07-23T13:10:52;1.50;;;1.40;;
35606;SDS011;21729;58.392;15.656;2022-07-23T13:13:20;1.45;;;1.33;;
35606;SDS011;21729;58.392;15.656;2022-07-23T13:15:48;1.47;;;1.37;;
35606;SDS011;21729;58.392;15.656;2022-07-23T13:18:15;1.50;;;1.10;;
35606;SDS011;21729;58.392;15.656;2022-07-23T13:20:43;1.40;;;1.10;;
35606;SDS011;21729;58.392;15.656;2022-07-23T13:23:10;1.30;;;1.10;;
35606;SDS011;21729;58.392;15.656;2022-07-23T13:25:38;1.30;;;1.10;;
35606;SDS011;21729;58.392;15.656;2022-07-23T13:28:07;1.20;;;1.10;;
35606;SDS011;21729;58.392;15.656;2022-07-23T13:30:34;1.30;;;1.20;;
35606;SDS011;21729;58.392;15.656;2022-07-23T13:33:02;1.15;;;1.13;;
35606;SDS011;21729;58.392;15.656;2022-07-23T13:35:29;1.30;;;1.20;;
35606;SDS011;21729;58.392;15.656;2022-07-23T13:37:57;1.52;;;1.10;;
35606;SDS011;21729;58.392;15.656;2022-07-23T13:40:24;1.20;;;1.10;;
35606;SDS011;21729;58.392;15.656;2022-07-23T13:42:51;1.40;;;1.30;;
35606;SDS011;21729;58.392;15.656;2022-07-23T13:45:19;1.63;;;1.30;;
35606;SDS011;21729;58.392;15.656;2022-07-23T13:47:47;1.30;;;1.30;;
35606;SDS011;21729;58.392;15.656;2022-07-23T13:50:14;1.40;;;1.30;;
35606;SDS011;21729;58.392;15.656;2022-07-23T13:52:42;1.30;;;1.20;;
35606;SDS011;21729;58.392;15.656;2022-07-23T13:55:09;1.20;;;1.20;;
35606;SDS011;21729;58.392;15.656;2022-07-23T13:57:37;1.40;;;1.30;;
35606;SDS011;21729;58.392;15.656;2022-07-23T14:00:04;1.80;;;1.30;;
35606;SDS011;21729;58.392;15.656;2022-07-23T14:02:36;1.00;;;1.00;;
35606;SDS011;21729;58.392;15.656;2022-07-23T14:05:04;1.20;;;1.20;;
35606;SDS011;21729;58.392;15.656;2022-07-23T14:07:32;1.20;;;1.10;;
35606;SDS011;21729;58.392;15.656;2022-07-23T14:09:59;1.08;;;1.08;;
35606;SDS011;21729;58.392;15.656;2022-07-23T14:12:26;1.30;;;1.30;;
35606;SDS011;21729;58.392;15.656;2022-07-23T14:14:53;2.60;;;1.45;;
35606;SDS011;21729;58.392;15.656;2022-07-23T14:17:20;1.38;;;1.27;;
35606;SDS011;21729;58.392;15.656;2022-07-23T14:19:49;1.35;;;1.25;;
35606;SDS011;21729;58.392;15.656;2022-07-23T14:22:17;1.80;;;1.33;;
35606;SDS011;21729;58.392;15.656;2022-07-23T14:24:44;2.40;;;1.40;;
35606;SDS011;21729;58.392;15.656;2022-07-23T14:27:11;1.50;;;1.40;;
35606;SDS011;21729;58.392;15.656;2022-07-23T14:29:38;1.90;;;1.30;;
35606;SDS011;21729;58.392;15.656;2022-07-23T14:32:05;1.30;;;1.20;;
35606;SDS011;21729;58.392;15.656;2022-07-23T14:34:33;1.38;;;1.27;;
35606;SDS011;21729;58.392;15.656;2022-07-23T14:37:02;1.30;;;1.30;;
35606;SDS011;21729;58.392;15.656;2022-07-23T14:39:29;1.23;;;1.10;;
35606;SDS011;21729;58.392;15.656;2022-07-23T14:41:56;2.00;;;1.13;;
35606;SDS011;21729;58.392;15.656;2022-07-23T14:44:23;1.20;;;1.20;;
35606;SDS011;21729;58.392;15.656;2022-07-23T14:46:50;1.33;;;1.10;;
35606;SDS011;21729;58.392;15.656;2022-07-23T14:49:17;1.10;;;1.10;;
35606;SDS011;21729;58.392;15.656;2022-07-23T14:51:44;1.23;;;1.10;;
35606;SDS011;21729;58.392;15.656;2022-07-23T14:54:13;1.40;;;1.30;;
35606;SDS011;21729;58.392;15.656;2022-07-23T14:56:40;1.45;;;1.30;;
35606;SDS011;21729;58.392;15.656;2022-07-23T14:59:08;1.40;;;1.30;;